Time;durP1;ratioP1;P1;durP2;ratioP2;P2;SDS_P1;SDS_P2;PMS_P1;PMS_P2;Temp;Humidity;BMP_temperature;BMP_pressure;BME280_temperature;BME280_humidity;BME280_pressure;Samples;Min_cycle;Max_cycle;Signal;HPM_P1;HPM_P2
2022/12/01 00:00:43;;;;;;;17.87;15.90;;;6.70;54.70;;;;;;20560;6833;310775;-74
2022/12/01 00:03:09;;;;;;;18.40;14.13;;;7.10;54.30;;;;;;20784;6833;117417;-73
2022/12/01 00:05:36;;;;;;;18.50;16.17;;;7.00;54.40;;;;;;20577;6833;310938;-74
2022/12/01 00:08:01;;;;;;;17.57;14.37;;;7.10;54.30;;;;;;20769;6833;117497;-74
2022/12/01 00:10:27;;;;;;;17.87;16.08;;;7.00;54.50;;;;;;20572;6834;278281;-74
2022/12/01 00:12:53;;;;;;;17.58;13.93;;;6.90;54.80;;;;;;20784;6834;117424;-74
2022/12/01 00:15:19;;;;;;;14.27;12.60;;;6.90;54.30;;;;;;20758;6834;117523;-74
2022/12/01 00:17:46;;;;;;;16.50;12.60;;;6.70;54.80;;;;;;20773;6834;117543;-74
2022/12/01 00:20:10;;;;;;;18.73;16.25;;;6.50;55.40;;;;;;20540;6834;337194;-74
2022/12/01 00:22:35;;;;;;;15.83;13.63;;;6.60;55.60;;;;;;20784;6834;117433;-74
2022/12/01 00:25:01;;;;;;;15.70;12.70;;;6.60;55.60;;;;;;20781;6834;118314;-74
2022/12/01 00:27:27;;;;;;;15.77;13.00;;;6.50;56.00;;;;;;20781;6834;117411;-74
2022/12/01 00:29:52;;;;;;;15.43;12.87;;;6.30;56.20;;;;;;20739;6834;118289;-74
2022/12/01 00:32:18;;;;;;;20.43;16.63;;;6.20;56.50;;;;;;20565;6834;308358;-74
2022/12/01 00:34:44;;;;;;;18.03;14.50;;;6.40;56.10;;;;;;20788;6834;118607;-74
2022/12/01 00:37:10;;;;;;;19.03;14.20;;;6.40;56.00;;;;;;20780;6834;117474;-74
2022/12/01 00:39:35;;;;;;;20.53;17.47;;;6.30;56.30;;;;;;20573;6834;309409;-74
2022/12/01 00:42:01;;;;;;;18.73;14.70;;;6.50;55.90;;;;;;20765;6834;118647;-74
2022/12/01 00:44:29;;;;;;;15.93;13.67;;;6.50;55.70;;;;;;20792;6832;117887;-74
2022/12/01 00:46:52;;;;;;;17.30;13.87;;;6.30;55.90;;;;;;20775;6833;117306;-74
2022/12/01 00:49:17;;;;;;;19.70;17.40;;;6.10;56.30;;;;;;20579;6833;289045;-74
2022/12/01 00:51:44;;;;;;;18.45;14.48;;;6.40;56.20;;;;;;20798;6833;117237;-76
2022/12/01 00:54:09;;;;;;;21.33;18.43;;;6.30;56.10;;;;;;20556;6833;307700;-75
2022/12/01 00:56:35;;;;;;;25.55;22.80;;;6.50;55.70;;;;;;20584;6833;310100;-74
2022/12/01 00:59:02;;;;;;;23.00;20.60;;;6.80;55.00;;;;;;20593;6833;294102;-74
2022/12/01 01:01:28;;;;;;;20.23;16.07;;;7.10;54.10;;;;;;20789;6833;117338;-74
2022/12/01 01:03:54;;;;;;;21.17;15.13;;;7.00;54.30;;;;;;20773;6833;118324;-74
2022/12/01 01:06:20;;;;;;;18.57;15.00;;;6.70;54.90;;;;;;20780;6833;117923;-74
2022/12/01 01:08:46;;;;;;;18.85;14.20;;;6.40;55.60;;;;;;20793;6833;117280;-74
2022/12/01 01:11:11;;;;;;;20.90;18.03;;;6.30;56.00;;;;;;20581;6833;278275;-74
2022/12/01 01:13:37;;;;;;;21.33;18.93;;;6.80;55.10;;;;;;20569;6833;281350;-74
2022/12/01 01:16:07;;;;;;;21.55;19.17;;;6.70;55.00;;;;;;20558;6833;278811;-74
2022/12/01 01:18:32;;;;;;;22.73;19.60;;;7.00;54.30;;;;;;20568;6833;308639;-74
2022/12/01 01:20:58;;;;;;;20.23;16.73;;;7.30;53.60;;;;;;20791;6833;118551;-74
2022/12/01 01:23:24;;;;;;;22.57;19.67;;;7.10;53.80;;;;;;20569;6834;277973;-74
2022/12/01 01:25:49;;;;;;;19.90;16.40;;;7.10;53.80;;;;;;20764;6834;119392;-75
2022/12/01 01:28:15;;;;;;;20.00;15.57;;;7.00;54.10;;;;;;20789;6834;117479;-74
2022/12/01 01:30:41;;;;;;;19.60;15.97;;;6.70;54.50;;;;;;20787;6834;117998;-74
2022/12/01 01:33:06;;;;;;;24.70;20.33;;;6.50;55.20;;;;;;20582;6834;309466;-73
2022/12/01 01:35:32;;;;;;;26.12;21.62;;;6.60;55.00;;;;;;20573;6834;311459;-73
2022/12/01 01:37:57;;;;;;;23.60;17.15;;;6.90;54.30;;;;;;20770;6834;117823;-73
2022/12/01 01:40:23;;;;;;;21.63;16.27;;;6.80;54.30;;;;;;20800;6834;117514;-74
2022/12/01 01:42:48;;;;;;;21.00;15.77;;;6.60;55.00;;;;;;20795;6834;117301;-75
2022/12/01 01:45:24;;;;;;;22.73;16.10;;;6.50;55.60;;;;;;20802;6834;117789;-73
2022/12/01 01:47:49;;;;;;;24.20;21.60;;;6.30;55.90;;;;;;20544;6834;280540;-75
2022/12/01 01:50:15;;;;;;;24.03;21.43;;;6.40;55.20;;;;;;20556;6834;309964;-74
2022/12/01 01:52:44;;;;;;;23.03;18.43;;;6.80;54.30;;;;;;20782;6834;118922;-74
2022/12/01 01:55:11;;;;;;;22.67;20.23;;;6.80;54.20;;;;;;20570;6832;289898;-74
2022/12/01 01:57:36;;;;;;;23.65;21.08;;;6.80;54.20;;;;;;20571;6833;309267;-74
2022/12/01 02:00:08;;;;;;;22.47;16.47;;;7.10;53.70;;;;;;20769;6833;121522;-74
2022/12/01 02:02:34;;;;;;;23.97;17.07;;;6.70;54.50;;;;;;20758;6833;117634;-75
2022/12/01 02:04:59;;;;;;;23.23;20.73;;;6.70;54.50;;;;;;20556;6833;307403;-74
2022/12/01 02:07:25;;;;;;;23.60;20.83;;;6.80;54.10;;;;;;20581;6833;278196;-74
2022/12/01 02:09:50;;;;;;;23.53;21.03;;;7.00;53.60;;;;;;20569;6833;305979;-75
2022/12/01 02:12:49;;;;;;;23.35;20.60;;;7.30;53.00;;;;;;20579;6833;278122;-74
2022/12/01 02:15:26;;;;;;;23.33;20.57;;;7.50;52.50;;;;;;20546;6833;307999;-74
2022/12/01 02:17:54;;;;;;;21.03;16.77;;;7.60;52.10;;;;;;20764;6833;118059;-75
2022/12/01 02:20:33;;;;;;;21.17;16.43;;;7.40;52.60;;;;;;20785;6833;117536;-74
2022/12/01 02:23:21;;;;;;;20.07;15.83;;;7.00;53.30;;;;;;20741;6833;117808;-74
2022/12/01 02:25:47;;;;;;;18.53;15.07;;;6.70;54.00;;;;;;20764;6833;118593;-75
2022/12/01 02:28:52;;;;;;;24.00;20.87;;;6.40;54.60;;;;;;20580;6833;279886;-74
2022/12/01 02:31:41;;;;;;;23.90;21.35;;;6.50;54.20;;;;;;20577;6833;337127;-74
2022/12/01 02:34:20;;;;;;;24.27;21.63;;;6.90;53.50;;;;;;20556;6834;308945;-74
2022/12/01 02:36:45;;;;;;;23.80;21.37;;;7.20;52.60;;;;;;20566;6834;278228;-74
2022/12/01 02:39:28;;;;;;;23.67;17.60;;;7.20;52.30;;;;;;20767;6834;117968;-74
2022/12/01 02:42:00;;;;;;;20.67;16.00;;;6.90;53.20;;;;;;20756;6834;117306;-75
2022/12/01 02:44:26;;;;;;;22.42;20.02;;;6.80;53.10;;;;;;20554;6834;339966;-74
2022/12/01 02:47:11;;;;;;;23.35;20.65;;;6.90;52.90;;;;;;20550;6834;307976;-74
2022/12/01 02:49:36;;;;;;;22.40;20.10;;;7.20;52.40;;;;;;20564;6834;337354;-74
2022/12/01 02:52:02;;;;;;;23.67;19.10;;;7.40;51.80;;;;;;20755;6834;117960;-74
2022/12/01 02:54:27;;;;;;;18.65;15.73;;;7.30;52.10;;;;;;20769;6834;120062;-74
2022/12/01 02:56:53;;;;;;;21.83;15.98;;;7.00;52.60;;;;;;20783;6834;117851;-74
2022/12/01 02:59:19;;;;;;;23.30;17.20;;;6.70;53.30;;;;;;20788;6834;118001;-74
2022/12/01 03:01:45;;;;;;;19.60;15.60;;;6.50;53.90;;;;;;20782;6834;117946;-74
2022/12/01 03:04:23;;;;;;;22.80;20.30;;;6.30;54.20;;;;;;20565;6834;308197;-74
2022/12/01 03:07:09;;;;;;;23.97;21.33;;;6.50;53.40;;;;;;20581;6832;307280;-74
2022/12/01 03:09:50;;;;;;;20.80;17.17;;;6.80;52.40;;;;;;20798;6833;117846;-74
2022/12/01 03:12:20;;;;;;;21.30;16.00;;;6.70;52.50;;;;;;20771;6833;118437;-74
2022/12/01 03:14:45;;;;;;;21.73;15.73;;;6.40;53.20;;;;;;20760;6833;117696;-74
2022/12/01 03:17:10;;;;;;;23.20;20.70;;;6.20;53.70;;;;;;20541;6833;299374;-74
2022/12/01 03:19:36;;;;;;;22.60;17.73;;;6.40;53.30;;;;;;20767;6833;117886;-75
2022/12/01 03:22:25;;;;;;;24.35;20.60;;;6.30;53.30;;;;;;20540;6833;310508;-73
2022/12/01 03:24:50;;;;;;;24.75;21.50;;;6.40;53.00;;;;;;20560;6833;308038;-74
2022/12/01 03:27:16;;;;;;;20.97;17.03;;;6.80;52.40;;;;;;20783;6833;118190;-74
2022/12/01 03:29:42;;;;;;;24.30;20.42;;;6.70;52.70;;;;;;20552;6833;308081;-74
2022/12/01 03:32:14;;;;;;;23.60;21.10;;;6.70;52.70;;;;;;20556;6833;280490;-74
2022/12/01 03:34:40;;;;;;;22.83;20.17;;;6.90;51.60;;;;;;20575;6833;312134;-74
2022/12/01 03:37:16;;;;;;;22.83;20.33;;;7.10;51.50;;;;;;20569;6833;307709;-73
2022/12/01 03:39:40;;;;;;;22.02;19.65;;;7.30;51.10;;;;;;20558;6833;280667;-74
2022/12/01 03:42:06;;;;;;;22.70;20.27;;;7.40;50.70;;;;;;20557;6833;340469;-74
2022/12/01 03:44:32;;;;;;;23.17;20.57;;;7.40;50.30;;;;;;20557;6834;278121;-74
2022/12/01 03:47:24;;;;;;;21.60;17.50;;;7.50;50.10;;;;;;20769;6834;120830;-74
2022/12/01 03:49:49;;;;;;;19.10;14.97;;;7.20;50.60;;;;;;20685;6834;118588;-75
2022/12/01 03:52:18;;;;;;;22.73;20.33;;;6.70;51.50;;;;;;20575;6834;307201;-74
2022/12/01 03:55:00;;;;;;;19.97;15.57;;;6.70;51.50;;;;;;20649;6834;117927;-74
2022/12/01 03:57:28;;;;;;;22.13;16.20;;;6.60;51.90;;;;;;20801;6834;117977;-74
2022/12/01 03:59:54;;;;;;;21.90;19.08;;;6.30;52.50;;;;;;20551;6834;278372;-75
2022/12/01 04:02:19;;;;;;;22.58;16.77;;;6.40;52.90;;;;;;20784;6834;118051;-74
2022/12/01 04:04:45;;;;;;;24.27;17.43;;;6.40;53.40;;;;;;20792;6834;119311;-74
2022/12/01 04:07:12;;;;;;;25.20;20.23;;;6.30;53.30;;;;;;20568;6834;307648;-74
2022/12/01 04:09:40;;;;;;;89.70;78.97;;;6.60;52.10;;;;;;20569;6834;337097;-74
2022/12/01 04:14:50;;;;;;;23.87;16.87;;;6.50;52.20;;;;;;20786;6834;119304;-75
2022/12/01 04:17:16;;;;;;;22.47;19.73;;;6.20;52.70;;;;;;20574;6834;310955;-75
2022/12/01 04:19:42;;;;;;;22.07;17.10;;;6.30;52.80;;;;;;20793;6832;117514;-73
2022/12/01 04:22:07;;;;;;;22.37;19.97;;;6.20;52.70;;;;;;20560;6833;277631;-73
2022/12/01 04:24:33;;;;;;;22.40;20.08;;;6.40;52.80;;;;;;20571;6833;308096;-74
2022/12/01 04:26:59;;;;;;;23.77;20.45;;;6.60;52.00;;;;;;20587;6833;278193;-74
2022/12/01 04:29:24;;;;;;;19.57;16.60;;;6.90;51.10;;;;;;20797;6833;119314;-75
2022/12/01 04:31:50;;;;;;;23.83;20.45;;;6.70;51.50;;;;;;20559;6833;335236;-75
2022/12/01 04:34:15;;;;;;;23.30;17.23;;;6.70;51.50;;;;;;20796;6833;117674;-76
2022/12/01 04:36:41;;;;;;;22.87;20.00;;;6.60;51.70;;;;;;20567;6833;339689;-71
2022/12/01 04:39:07;;;;;;;22.02;17.80;;;6.50;52.10;;;;;;20791;6833;118276;-75
2022/12/01 04:41:33;;;;;;;21.73;15.40;;;6.50;52.00;;;;;;20787;6833;119764;-75
2022/12/01 04:43:58;;;;;;;21.50;15.88;;;6.30;52.60;;;;;;20768;6833;118402;-74
2022/12/01 04:46:24;;;;;;;21.02;16.45;;;6.10;53.10;;;;;;20792;6833;119218;-74
2022/12/01 04:48:50;;;;;;;18.65;15.00;;;5.80;53.90;;;;;;20783;6833;117651;-74
2022/12/01 04:51:16;;;;;;;21.37;15.47;;;5.70;53.80;;;;;;20779;6833;119243;-74
2022/12/01 04:53:42;;;;;;;19.05;15.40;;;5.60;54.20;;;;;;20783;6833;118822;-76
2022/12/01 04:56:07;;;;;;;19.15;15.02;;;5.50;54.40;;;;;;20776;6834;117946;-75
2022/12/01 04:58:33;;;;;;;19.87;15.93;;;5.50;54.50;;;;;;20799;6834;119475;-74
2022/12/01 05:01:01;;;;;;;26.10;20.53;;;5.40;54.70;;;;;;20583;6834;278914;-74
2022/12/01 05:03:27;;;;;;;24.35;20.60;;;5.60;54.40;;;;;;20581;6834;278006;-74
2022/12/01 05:06:03;;;;;;;24.20;20.90;;;6.30;52.80;;;;;;20558;6834;278637;-75
2022/12/01 05:08:29;;;;;;;24.73;22.03;;;6.30;52.70;;;;;;20575;6834;308136;-74
2022/12/01 05:10:55;;;;;;;22.65;17.62;;;6.60;52.10;;;;;;20795;6834;119056;-74
2022/12/01 05:13:20;;;;;;;20.97;16.50;;;6.50;52.10;;;;;;20782;6834;117562;-75
2022/12/01 05:15:46;;;;;;;23.87;20.48;;;6.20;52.70;;;;;;20578;6834;337192;-74
2022/12/01 05:18:11;;;;;;;24.97;17.57;;;6.20;52.70;;;;;;20791;6834;117959;-74
2022/12/01 05:20:56;;;;;;;24.97;21.07;;;6.10;52.90;;;;;;20583;6834;288581;-75
2022/12/01 05:23:23;;;;;;;23.00;20.50;;;6.20;52.80;;;;;;20584;6834;278599;-75
2022/12/01 05:25:49;;;;;;;20.83;17.77;;;6.50;52.30;;;;;;20770;6834;150432;-76
2022/12/01 05:28:14;;;;;;;23.17;20.55;;;6.40;52.50;;;;;;20588;6834;279462;-76
2022/12/01 05:30:41;;;;;;;21.02;17.27;;;6.30;52.60;;;;;;20811;6832;123085;-75
2022/12/01 05:33:06;;;;;;;21.47;16.50;;;6.40;52.70;;;;;;20787;6833;116338;-74
2022/12/01 05:35:32;;;;;;;22.73;20.33;;;6.10;53.20;;;;;;20581;6833;310563;-76
2022/12/01 05:37:57;;;;;;;25.02;22.08;;;6.20;52.90;;;;;;20566;6833;278154;-76
2022/12/01 05:40:23;;;;;;;20.23;16.70;;;6.50;52.30;;;;;;20794;6833;118770;-75
2022/12/01 05:42:48;;;;;;;21.50;16.62;;;6.40;52.40;;;;;;20794;6833;117360;-76
2022/12/01 05:45:16;;;;;;;22.87;20.27;;;6.20;53.50;;;;;;20581;6833;308530;-76
2022/12/01 05:47:41;;;;;;;24.23;21.62;;;6.20;52.70;;;;;;20555;6833;308511;-76
2022/12/01 05:50:07;;;;;;;24.00;21.40;;;6.50;52.30;;;;;;20557;6833;307425;-78
2022/12/01 05:52:33;;;;;;;24.33;20.73;;;6.70;51.60;;;;;;20554;6833;341004;-75
2022/12/01 05:54:58;;;;;;;21.77;18.03;;;6.90;51.20;;;;;;20788;6833;119655;-76
2022/12/01 05:57:24;;;;;;;23.65;17.10;;;6.80;51.60;;;;;;20788;6833;117469;-76
2022/12/01 05:59:50;;;;;;;22.73;16.87;;;6.40;52.10;;;;;;20773;6833;119037;-78
2022/12/01 06:02:17;;;;;;;22.20;19.85;;;6.20;52.80;;;;;;20573;6833;307091;-77
2022/12/01 06:04:43;;;;;;;21.37;17.50;;;6.20;52.80;;;;;;20789;6833;117356;-77
2022/12/01 06:07:10;;;;;;;22.23;16.52;;;6.00;53.20;;;;;;20788;6833;117716;-77
2022/12/01 06:09:36;;;;;;;20.10;15.50;;;5.80;53.50;;;;;;20794;6834;117744;-79
2022/12/01 06:12:04;;;;;;;22.40;19.80;;;6.00;53.20;;;;;;20558;6834;309531;-79
2022/12/01 06:14:30;;;;;;;22.60;20.17;;;6.30;52.40;;;;;;20572;6834;308144;-80
2022/12/01 06:16:56;;;;;;;22.40;17.50;;;6.30;52.40;;;;;;20796;6834;118441;-75
2022/12/01 06:19:21;;;;;;;23.87;16.87;;;6.30;52.40;;;;;;20790;6834;116742;-76
2022/12/01 06:21:47;;;;;;;22.52;16.92;;;6.00;52.70;;;;;;20775;6834;118988;-77
2022/12/01 06:24:13;;;;;;;22.23;16.63;;;5.80;53.20;;;;;;20787;6834;120108;-75
2022/12/01 06:26:40;;;;;;;22.95;19.52;;;5.80;53.70;;;;;;20560;6834;279086;-75
2022/12/01 06:29:07;;;;;;;21.00;17.13;;;5.80;53.50;;;;;;20789;6834;119115;-75
2022/12/01 06:31:33;;;;;;;20.43;16.27;;;5.70;53.80;;;;;;20788;6834;117640;-77
2022/12/01 06:33:59;;;;;;;21.33;16.20;;;5.70;53.80;;;;;;20773;6834;118590;-75
2022/12/01 06:36:25;;;;;;;20.57;15.50;;;5.40;54.50;;;;;;20791;6834;118203;-75
2022/12/01 06:38:50;;;;;;;23.27;20.77;;;5.40;54.50;;;;;;20583;6834;299373;-74
2022/12/01 06:41:16;;;;;;;24.77;21.40;;;5.60;54.10;;;;;;20586;6832;316954;-76
2022/12/01 06:43:42;;;;;;;22.50;17.07;;;6.00;53.60;;;;;;20807;6833;117678;-76
2022/12/01 06:46:07;;;;;;;21.02;16.33;;;6.00;53.50;;;;;;20776;6833;119079;-76
2022/12/01 06:48:33;;;;;;;22.27;16.95;;;5.90;53.80;;;;;;20801;6833;118220;-77
2022/12/01 06:51:00;;;;;;;21.27;15.83;;;5.70;54.20;;;;;;20798;6833;117747;-81
2022/12/01 06:53:27;;;;;;;23.87;20.33;;;5.60;54.60;;;;;;20586;6833;277809;-76
2022/12/01 06:55:52;;;;;;;25.23;21.63;;;5.70;54.20;;;;;;20559;6833;310227;-75
2022/12/01 06:58:18;;;;;;;23.27;17.57;;;6.10;53.70;;;;;;20790;6833;123352;-75
2022/12/01 07:00:43;;;;;;;20.92;16.98;;;6.20;53.80;;;;;;20794;6833;117297;-76
2022/12/01 07:03:09;;;;;;;24.60;21.37;;;5.90;53.90;;;;;;20581;6833;307264;-75
2022/12/01 07:05:35;;;;;;;25.63;21.03;;;6.00;53.70;;;;;;20584;6833;278144;-75
2022/12/01 07:08:01;;;;;;;25.77;22.10;;;6.60;52.60;;;;;;20549;6833;310742;-76
2022/12/01 07:10:26;;;;;;;21.60;18.27;;;6.50;52.50;;;;;;20791;6833;118654;-74
2022/12/01 07:12:52;;;;;;;23.87;20.90;;;6.40;52.60;;;;;;20578;6833;307601;-73
2022/12/01 07:15:18;;;;;;;26.15;22.23;;;6.40;52.80;;;;;;20564;6833;339970;-72
2022/12/01 07:17:44;;;;;;;21.93;17.57;;;6.40;52.60;;;;;;20791;6833;118507;-72
2022/12/01 07:20:10;;;;;;;23.17;17.63;;;6.50;52.70;;;;;;20756;6834;117483;-72
2022/12/01 07:22:35;;;;;;;26.50;22.10;;;6.10;53.20;;;;;;20583;6834;279743;-73
2022/12/01 07:25:01;;;;;;;26.77;22.70;;;6.20;53.40;;;;;;20582;6834;309733;-74
2022/12/01 07:27:30;;;;;;;24.23;18.97;;;6.40;52.80;;;;;;20793;6834;118469;-74
2022/12/01 07:29:55;;;;;;;28.97;22.70;;;6.30;52.90;;;;;;20766;6834;118849;-73
2022/12/01 07:32:21;;;;;;;23.20;20.63;;;6.10;53.40;;;;;;20789;6834;117473;-75
2022/12/01 07:34:46;;;;;;;27.87;24.10;;;5.80;53.80;;;;;;20573;6834;341241;-74
2022/12/01 07:37:12;;;;;;;28.38;24.17;;;5.90;53.80;;;;;;20577;6834;310360;-75
2022/12/01 07:39:38;;;;;;;23.07;19.17;;;6.20;53.30;;;;;;20792;6834;118211;-75
2022/12/01 07:42:04;;;;;;;23.00;17.07;;;6.10;53.20;;;;;;20774;6834;118737;-74
2022/12/01 07:44:29;;;;;;;25.65;22.58;;;5.90;53.60;;;;;;20575;6834;308081;-73
2022/12/01 07:46:55;;;;;;;25.10;18.90;;;6.00;53.70;;;;;;20797;6834;119611;-75
2022/12/01 07:49:21;;;;;;;24.53;18.63;;;5.90;53.70;;;;;;20796;6834;117488;-72
2022/12/01 07:51:46;;;;;;;22.73;16.92;;;5.70;54.20;;;;;;20797;6834;117321;-73
2022/12/01 07:54:13;;;;;;;23.60;17.50;;;5.60;54.80;;;;;;20794;6832;117440;-73
2022/12/01 07:56:37;;;;;;;25.13;17.87;;;5.50;55.20;;;;;;20788;6833;117554;-71
2022/12/01 07:59:03;;;;;;;24.63;20.90;;;5.40;55.60;;;;;;20582;6833;309774;-70
2022/12/01 08:01:29;;;;;;;26.27;23.20;;;5.60;56.40;;;;;;20580;6833;311246;-69
2022/12/01 08:03:54;;;;;;;26.73;23.03;;;6.10;55.60;;;;;;20561;6833;278173;-70
2022/12/01 08:06:20;;;;;;;23.73;18.70;;;6.50;54.50;;;;;;20788;6833;117914;-70
2022/12/01 08:08:45;;;;;;;25.77;22.87;;;6.50;53.90;;;;;;20577;6833;279074;-70
2022/12/01 08:11:14;;;;;;;26.00;22.30;;;6.80;53.40;;;;;;20575;6833;307363;-70
2022/12/01 08:13:40;;;;;;;23.53;19.27;;;6.80;53.50;;;;;;20783;6833;117315;-70
2022/12/01 08:16:06;;;;;;;27.10;22.17;;;6.80;53.60;;;;;;20599;6833;401109;-71
2022/12/01 08:18:34;;;;;;;26.08;22.67;;;6.80;52.90;;;;;;20607;6833;280945;-74
2022/12/01 08:21:01;;;;;;;25.85;22.98;;;7.20;51.80;;;;;;20595;6833;279640;-71
2022/12/01 08:23:26;;;;;;;28.10;23.63;;;7.20;51.80;;;;;;20596;6833;309623;-71
2022/12/01 08:25:52;;;;;;;23.87;19.45;;;7.30;51.40;;;;;;20812;6833;150785;-72
2022/12/01 08:28:17;;;;;;;23.17;18.80;;;7.10;51.80;;;;;;20828;6833;121661;-71
2022/12/01 08:30:43;;;;;;;24.17;19.20;;;6.80;52.60;;;;;;20813;6834;119543;-72
2022/12/01 08:33:09;;;;;;;24.73;17.87;;;6.30;54.60;;;;;;20817;6834;116473;-71
2022/12/01 08:35:35;;;;;;;26.80;23.17;;;6.20;53.70;;;;;;20605;6834;278622;-74
2022/12/01 08:38:00;;;;;;;27.10;23.50;;;6.30;53.20;;;;;;20586;6834;279413;-73
2022/12/01 08:40:26;;;;;;;25.08;19.58;;;6.60;52.70;;;;;;20822;6834;118777;-71
2022/12/01 08:42:53;;;;;;;25.57;19.47;;;6.50;52.70;;;;;;20827;6834;117322;-71
2022/12/01 08:45:19;;;;;;;28.20;18.77;;;6.30;53.30;;;;;;20816;6834;117044;-73
2022/12/01 08:47:44;;;;;;;27.93;18.57;;;6.20;54.00;;;;;;20793;6834;117233;-71
2022/12/01 08:50:10;;;;;;;25.87;18.93;;;6.00;54.60;;;;;;20781;6834;117895;-72
2022/12/01 08:52:35;;;;;;;25.83;19.33;;;5.90;55.00;;;;;;20792;6834;118659;-71
2022/12/01 08:55:01;;;;;;;26.23;18.90;;;5.80;55.00;;;;;;20795;6834;117755;-72
2022/12/01 08:57:30;;;;;;;29.63;23.70;;;5.70;55.10;;;;;;20576;6834;337032;-71
2022/12/01 08:59:56;;;;;;;26.83;23.98;;;6.30;53.90;;;;;;20559;6834;307956;-73
2022/12/01 09:02:22;;;;;;;29.00;21.97;;;6.30;53.90;;;;;;20794;6834;118374;-72
2022/12/01 09:04:51;;;;;;;27.13;20.93;;;6.20;54.30;;;;;;20792;6832;118428;-72
2022/12/01 09:07:16;;;;;;;27.87;19.03;;;6.20;54.30;;;;;;20793;6833;117980;-72
2022/12/01 09:09:42;;;;;;;29.13;24.47;;;6.00;54.60;;;;;;20583;6833;278025;-72
2022/12/01 09:12:08;;;;;;;29.50;25.70;;;6.20;54.40;;;;;;20561;6833;280471;-73
2022/12/01 09:14:40;;;;;;;29.15;25.92;;;6.50;53.70;;;;;;20578;6833;307445;-73
2022/12/01 09:17:06;;;;;;;27.90;24.87;;;6.80;53.30;;;;;;20592;6833;277411;-72
2022/12/01 09:19:32;;;;;;;28.60;25.20;;;7.10;52.70;;;;;;20586;6833;307731;-72
2022/12/01 09:21:59;;;;;;;25.20;20.37;;;7.30;52.30;;;;;;20784;6833;121007;-73
2022/12/01 09:24:25;;;;;;;27.07;20.80;;;7.10;52.50;;;;;;20798;6833;117394;-73
2022/12/01 09:26:54;;;;;;;29.53;25.37;;;6.80;53.30;;;;;;20586;6833;306942;-73
2022/12/01 09:29:19;;;;;;;29.35;24.92;;;6.80;53.30;;;;;;20574;6833;339553;-73
2022/12/01 09:31:45;;;;;;;26.95;21.87;;;7.10;53.30;;;;;;20793;6833;117303;-72
2022/12/01 09:34:11;;;;;;;28.75;25.50;;;7.00;53.20;;;;;;20564;6833;337242;-73
2022/12/01 09:36:37;;;;;;;26.60;20.80;;;6.90;53.40;;;;;;20784;6833;117812;-73
2022/12/01 09:39:03;;;;;;;27.80;21.30;;;6.90;53.40;;;;;;20789;6833;117277;-72
2022/12/01 09:41:34;;;;;;;31.52;26.60;;;6.60;53.80;;;;;;20580;6833;284924;-72
2022/12/01 09:44:16;;;;;;;32.53;27.87;;;6.70;54.40;;;;;;20559;6834;311604;-75
2022/12/01 09:46:43;;;;;;;31.70;27.23;;;7.00;54.00;;;;;;20582;6834;282957;-75
2022/12/01 09:49:19;;;;;;;33.10;27.83;;;7.20;53.40;;;;;;20578;6834;278445;-75
2022/12/01 09:51:44;;;;;;;32.73;21.57;;;7.30;53.20;;;;;;20111;6834;119378;-75
2022/12/01 09:54:10;;;;;;;32.13;26.80;;;7.10;53.60;;;;;;20565;6834;307175;-77
2022/12/01 09:56:36;;;;;;;28.48;22.30;;;7.10;54.10;;;;;;20783;6834;117550;-76
2022/12/01 09:59:01;;;;;;;31.40;21.63;;;7.00;54.50;;;;;;20767;6834;119575;-75
2022/12/01 10:01:30;;;;;;;28.10;20.88;;;6.80;55.00;;;;;;20778;6834;117532;-75
2022/12/01 10:03:55;;;;;;;26.70;20.53;;;6.60;55.50;;;;;;20765;6834;121866;-76
2022/12/01 10:06:28;;;;;;;31.45;26.12;;;6.50;55.80;;;;;;20569;6834;307116;-75
2022/12/01 10:08:54;;;;;;;48.92;39.80;;;6.60;55.20;;;;;;20557;6834;308640;-75
2022/12/01 10:11:31;;;;;;;36.70;31.52;;;6.90;55.30;;;;;;19781;6834;336672;-75
2022/12/01 10:13:57;;;;;;;29.17;22.67;;;7.20;55.40;;;;;;20737;6834;118095;-75
2022/12/01 10:16:25;;;;;;;26.23;20.73;;;7.10;55.30;;;;;;20787;6832;121708;-75
2022/12/01 10:18:51;;;;;;;31.27;26.73;;;6.90;55.50;;;;;;20577;6833;299447;-72
2022/12/01 10:21:34;;;;;;;27.47;21.50;;;6.90;55.10;;;;;;20775;6833;117420;-74
2022/12/01 10:24:13;;;;;;;26.73;20.37;;;6.90;55.10;;;;;;20759;6833;121422;-76
2022/12/01 10:27:02;;;;;;;28.57;21.70;;;6.70;55.50;;;;;;20748;6833;117743;-73
2022/12/01 10:29:44;;;;;;;29.47;25.77;;;6.40;55.90;;;;;;20568;6833;310716;-73
2022/12/01 10:32:31;;;;;;;26.70;20.93;;;6.60;56.10;;;;;;20783;6833;120097;-72
2022/12/01 10:34:55;;;;;;;30.70;20.00;;;6.60;55.50;;;;;;19555;6833;126669;-73
2022/12/01 10:37:21;;;;;;;28.90;20.50;;;6.40;55.90;;;;;;20791;6833;122596;-73
2022/12/01 10:39:46;;;;;;;32.08;25.37;;;6.20;56.40;;;;;;20570;6833;296822;-74
2022/12/01 10:42:35;;;;;;;30.52;26.75;;;6.40;55.90;;;;;;20563;6833;333377;-74
2022/12/01 10:45:02;;;;;;;30.97;26.17;;;6.70;55.10;;;;;;20775;6833;117632;-73
2022/12/01 10:47:27;;;;;;;29.10;21.67;;;6.70;55.10;;;;;;20780;6833;119029;-71
2022/12/01 10:49:53;;;;;;;30.30;25.45;;;6.50;55.60;;;;;;20561;6833;280522;-72
2022/12/01 10:52:38;;;;;;;25.75;20.92;;;6.60;55.60;;;;;;20790;6833;116628;-73
2022/12/01 10:55:03;;;;;;;26.37;20.27;;;6.60;55.50;;;;;;20788;6834;117305;-73
2022/12/01 10:57:29;;;;;;;29.87;22.05;;;6.40;55.70;;;;;;20710;6834;117403;-72
2022/12/01 10:59:55;;;;;;;31.12;20.65;;;6.30;56.10;;;;;;20769;6834;117413;-74
2022/12/01 11:02:20;;;;;;;32.03;26.90;;;6.10;56.50;;;;;;20570;6834;280397;-72
2022/12/01 11:04:59;;;;;;;28.30;22.85;;;6.30;56.80;;;;;;20789;6834;117978;-72
2022/12/01 11:07:30;;;;;;;26.63;20.73;;;6.30;56.50;;;;;;20795;6834;117535;-73
2022/12/01 11:10:16;;;;;;;28.13;21.47;;;6.30;56.90;;;;;;20774;6834;117888;-73
2022/12/01 11:12:41;;;;;;;28.10;24.73;;;6.10;57.10;;;;;;20582;6834;277672;-73
2022/12/01 11:15:07;;;;;;;29.40;22.13;;;6.40;57.10;;;;;;20783;6834;117288;-72
2022/12/01 11:17:36;;;;;;;28.20;25.07;;;6.50;57.00;;;;;;20533;6834;336713;-72
2022/12/01 11:20:28;;;;;;;28.43;21.53;;;6.80;56.70;;;;;;20755;6834;118383;-72
2022/12/01 11:23:15;;;;;;;29.83;25.80;;;7.00;55.60;;;;;;20571;6834;337467;-71
2022/12/01 11:25:40;;;;;;;28.37;22.20;;;6.90;55.50;;;;;;20777;6834;117692;-72
2022/12/01 11:28:06;;;;;;;24.02;19.50;;;6.90;55.60;;;;;;20785;6832;118650;-73
2022/12/01 11:30:31;;;;;;;28.87;20.45;;;6.80;56.00;;;;;;20767;6833;116958;-73
2022/12/01 11:32:58;;;;;;;23.73;19.67;;;6.50;56.90;;;;;;20809;6833;117892;-73
2022/12/01 11:35:23;;;;;;;23.53;19.00;;;6.40;57.50;;;;;;20789;6833;119187;-72
2022/12/01 11:37:52;;;;;;;24.67;19.50;;;6.30;57.20;;;;;;20774;6833;117602;-73
2022/12/01 11:40:21;;;;;;;28.03;20.03;;;6.20;57.60;;;;;;20784;6833;118691;-72
2022/12/01 11:42:50;;;;;;;27.55;24.50;;;6.20;57.60;;;;;;20573;6833;336650;-73
2022/12/01 11:45:19;;;;;;;28.73;21.47;;;6.50;56.50;;;;;;20789;6833;117380;-73
2022/12/01 11:48:05;;;;;;;26.27;20.67;;;6.50;56.50;;;;;;20794;6833;119293;-73
2022/12/01 11:50:34;;;;;;;24.30;19.13;;;6.40;57.50;;;;;;20785;6833;117499;-72
2022/12/01 11:52:59;;;;;;;44.07;31.77;;;6.40;57.20;;;;;;20784;6833;117247;-71
2022/12/01 11:55:26;;;;;;;27.87;24.87;;;6.50;56.60;;;;;;20577;6833;310495;-71
2022/12/01 11:57:51;;;;;;;26.53;20.67;;;6.40;56.40;;;;;;20766;6833;117884;-72
2022/12/01 12:00:17;;;;;;;29.37;24.90;;;6.60;56.60;;;;;;20546;6833;306799;-71
2022/12/01 12:02:44;;;;;;;28.65;25.58;;;7.10;54.90;;;;;;20563;6833;339331;-71
2022/12/01 12:05:19;;;;;;;28.13;24.80;;;7.10;54.80;;;;;;20583;6833;280972;-71
2022/12/01 12:07:51;;;;;;;26.10;19.90;;;7.50;53.80;;;;;;19695;7193;120926;-72
2022/12/01 12:10:26;;;;;;;26.03;23.27;;;7.40;53.90;;;;;;20481;6834;307574;-72
2022/12/01 12:13:15;;;;;;;25.77;20.23;;;7.40;53.40;;;;;;20799;6834;117745;-72
2022/12/01 12:15:51;;;;;;;26.67;23.80;;;7.30;53.60;;;;;;20584;6834;337471;-72
2022/12/01 12:18:36;;;;;;;24.43;19.17;;;7.40;53.70;;;;;;20776;6834;117208;-73
2022/12/01 12:21:13;;;;;;;25.48;22.77;;;7.40;53.60;;;;;;20581;6834;337241;-72
2022/12/01 12:24:08;;;;;;;26.23;20.00;;;7.40;53.60;;;;;;20776;6834;118918;-72
2022/12/01 12:26:34;;;;;;;26.90;23.73;;;7.30;53.50;;;;;;20548;6834;342073;-73
2022/12/01 12:29:26;;;;;;;25.33;20.27;;;7.30;53.30;;;;;;20768;6834;117428;-73
2022/12/01 12:32:32;;;;;;;27.13;24.23;;;7.40;53.20;;;;;;20562;6834;277910;-72
2022/12/01 12:35:18;;;;;;;26.20;23.40;;;7.40;53.10;;;;;;20585;6834;278108;-72
2022/12/01 12:37:59;;;;;;;25.97;23.17;;;7.70;52.40;;;;;;20588;6834;302588;-71